Platzwetter Flugplatz Wels

Flugwetter Linz LOWL

[Quelle: ADDS]
METAR
LOWL 231720Z AUTO 27006KT 9999 FEW050 BKN060 18/07 Q1017 NOSIG =
LOWL 231715Z 2318/2418 30003KT 9999 SCT070 TX21/2415Z TN08/2403Z PROB30 TEMPO 2404/2406 1200 BCFG
TAF
LOWL 231715Z 2318/2418 30003KT 9999 SCT070 TX21/2415Z TN08/2403Z PROB30 TEMPO 2404/2406 1200 BCFG =

Flugwetter Salzburg LOWS

[Quelle: ADDS]
METAR
LOWS 231720Z 33004KT 300V080 9999 FEW060 SCT300 18/05 Q1017 NOSIG =
LOWS 231715Z 2318/2418 15003KT CAVOK TX21/2414Z TN07/2403Z BECMG 2407/2409 01004KT BECMG 2416/2418 15003KT
TAF
LOWS 231715Z 2318/2418 15003KT CAVOK TX21/2414Z TN07/2403Z BECMG 2407/2409 01004KT BECMG 2416/2418 15003KT =

Wind - Verlauf

Windrichtung - Verlauf

Temperatur - Verlauf

Relative Luftfeuchtigkeit - Verlauf

Luftdruck - Verlauf


Pilot für einen Tag - Erfülle Dir den Traum vom Fliegen!

Werde einen Tag lang Pilot bei und mit dem Fliegerclub Weiße Möwe in Wels!

Stadt - Wels

Ausflugsziele & Sehenswürdigkeiten
in Wels und Umgebung

JU-52

JU-52 Rundflüge.
Aktuelle Infos & News.

Cookies erleichtern die Bereitstellung unserer Dienste. Mit der Nutzung unserer Dienste erklären Sie sich damit einverstanden, dass wir Cookies verwenden.
Weitere Informationen Ok